De Land, Illinois
Current Conditions -  °F | °C
As of 5:53 PM on Monday 20 Oct 2014 (Local Time) from KCMI Reporting Station
Scattered Clouds Scattered Clouds  
Wind Chill: 62°   Ceiling: Unl
Heat Index: 62°   Visibility: 10mi
Dew Point: 44°   Wind: 10mph
Humidity: 52%   Direction: 310°NW
Pressure: 29.93"   Gusts: NA
Location:  40.12°N, 88.65°W
Report Text: KCMI 202253Z 31009KT 10SM SCT060 17/07 A2993 RMK AO2 SLP133 T01670067 $
Loading
Personal Weather Stations






























Interactive Weather Map
Tropical Storm Tracking
New forecast layout! Learn more

10-Day Weather Forecast

Advertisements
Track Severe Weather on mobile